createdAt,value
2022-10-01T00:00:13.705Z,972.07
2022-10-01T00:05:45.403Z,972.09
2022-10-01T00:11:17.142Z,972.08
2022-10-01T00:16:49.061Z,971.95
2022-10-01T00:22:20.725Z,971.73
2022-10-01T00:27:52.505Z,971.69
2022-10-01T00:33:24.171Z,971.61
2022-10-01T00:38:55.732Z,971.85
2022-10-01T00:44:27.558Z,972.29
2022-10-01T00:50:00.201Z,972.63
2022-10-01T00:55:37.392Z,972.47
2022-10-01T01:01:09.351Z,972.19
2022-10-01T01:06:40.824Z,972.47
2022-10-01T01:12:12.600Z,972.51
2022-10-01T01:17:44.213Z,972.85
2022-10-01T01:23:15.964Z,972.53
2022-10-01T01:28:47.737Z,972.7
2022-10-01T01:34:19.497Z,972.59
2022-10-01T01:39:51.141Z,972.3
2022-10-01T01:45:23.188Z,972.65
2022-10-01T01:50:54.582Z,972.05
2022-10-01T01:56:30.737Z,972.1
2022-10-01T02:02:02.948Z,972.41
2022-10-01T02:07:34.364Z,972.5
2022-10-01T02:13:05.909Z,972.28
2022-10-01T02:18:37.724Z,972.2
2022-10-01T02:24:09.329Z,972.32
2022-10-01T02:29:41.091Z,972.15
2022-10-01T02:35:12.932Z,972.4
2022-10-01T02:40:44.441Z,972.3
2022-10-01T02:46:16.504Z,972.42
2022-10-01T02:51:47.985Z,972.41
2022-10-01T02:57:24.147Z,972.45
2022-10-01T03:02:55.869Z,972.42
2022-10-01T03:08:27.522Z,972.97
2022-10-01T03:13:59.253Z,972.79
2022-10-01T03:19:31.254Z,972.6
2022-10-01T03:25:02.638Z,972.44
2022-10-01T03:30:34.410Z,972.41
2022-10-01T03:36:06.147Z,972.6
2022-10-01T03:41:37.865Z,972.59
2022-10-01T03:47:09.578Z,972.72
2022-10-01T03:52:41.227Z,972.57
2022-10-01T03:58:19.405Z,972.25
2022-10-01T04:03:51.256Z,971.99
2022-10-01T04:09:22.897Z,971.99
2022-10-01T04:14:54.498Z,972.16
2022-10-01T04:20:26.353Z,972.16
2022-10-01T04:25:57.995Z,972.21
2022-10-01T04:31:29.932Z,972.24
2022-10-01T04:37:01.434Z,972.36
2022-10-01T04:42:33.278Z,971.98
2022-10-01T04:48:04.939Z,972.19
2022-10-01T04:53:36.694Z,972.22
2022-10-01T04:59:12.910Z,972.33
2022-10-01T05:04:44.549Z,972.49
2022-10-01T05:10:16.189Z,972.06
2022-10-01T05:15:47.949Z,972.43
2022-10-01T05:21:19.678Z,971.82
2022-10-01T05:26:51.386Z,972.12
2022-10-01T05:32:23.162Z,972.15
2022-10-01T05:37:54.859Z,972.19
2022-10-01T05:43:26.566Z,972.29
2022-10-01T05:48:58.231Z,972.3
2022-10-01T05:54:30.130Z,972.03
2022-10-01T06:00:06.165Z,972.07
2022-10-01T06:05:37.854Z,972.04
2022-10-01T06:11:09.700Z,971.81
2022-10-01T06:16:41.526Z,971.98
2022-10-01T06:22:12.992Z,971.96
2022-10-01T06:27:44.957Z,971.75
2022-10-01T06:33:16.427Z,971.78
2022-10-01T06:38:48.208Z,972.02
2022-10-01T06:44:19.898Z,971.91
2022-10-01T06:49:51.753Z,971.82
2022-10-01T06:55:23.325Z,972.22
2022-10-01T07:00:59.686Z,972.65
2022-10-01T07:06:31.266Z,971.69
2022-10-01T07:12:02.901Z,971.81
2022-10-01T07:17:34.750Z,971.7
2022-10-01T07:23:06.343Z,972.05
2022-10-01T07:28:38.073Z,972.42
2022-10-01T07:34:09.811Z,972.16
2022-10-01T07:39:41.615Z,972.11
2022-10-01T07:45:13.266Z,971.6
2022-10-01T07:50:45.027Z,971.79
2022-10-01T07:56:16.834Z,972.53
2022-10-01T08:01:55.160Z,971.93
2022-10-01T08:07:26.654Z,971.32
2022-10-01T08:12:58.501Z,971.99
2022-10-01T08:18:30.117Z,972.09
2022-10-01T08:24:01.929Z,972.48
2022-10-01T08:29:33.494Z,972.22
2022-10-01T08:35:05.450Z,972.92
2022-10-01T08:40:37.001Z,972.84
2022-10-01T08:46:08.986Z,972.96
2022-10-01T08:51:40.637Z,973.15
2022-10-01T08:57:12.369Z,973.5
2022-10-01T09:02:50.297Z,973.92
2022-10-01T09:08:22.089Z,974.18
2022-10-01T09:13:53.827Z,974.24
2022-10-01T09:19:25.705Z,974.11
2022-10-01T09:24:57.489Z,974.07
2022-10-01T09:30:29.086Z,974.45
2022-10-01T09:36:00.772Z,974.25
2022-10-01T09:41:33.430Z,974.52
2022-10-01T09:47:04.163Z,974.52
2022-10-01T09:52:35.863Z,974.45
2022-10-01T09:58:07.662Z,975.04
2022-10-01T10:03:45.926Z,975.0
2022-10-01T10:09:17.445Z,975.02
2022-10-01T10:14:49.171Z,975.2
2022-10-01T10:20:20.912Z,974.86
2022-10-01T10:25:52.674Z,974.95
2022-10-01T10:31:24.792Z,974.78
2022-10-01T10:36:56.162Z,974.98
2022-10-01T10:42:27.711Z,974.86
2022-10-01T10:47:59.538Z,975.4
2022-10-01T10:53:31.337Z,975.27
2022-10-01T10:59:03.042Z,975.08
2022-10-01T11:04:39.201Z,975.55
2022-10-01T11:10:10.787Z,975.88
2022-10-01T11:15:42.748Z,975.55
2022-10-01T11:21:14.269Z,975.58
2022-10-01T11:26:46.015Z,975.55
2022-10-01T11:32:17.754Z,975.74
2022-10-01T11:37:49.521Z,975.71
2022-10-01T11:43:21.381Z,975.99
2022-10-01T11:48:52.957Z,975.94
2022-10-01T11:54:24.787Z,976.18
2022-10-01T11:59:56.447Z,976.19
2022-10-01T12:05:34.735Z,976.45
2022-10-01T12:11:06.234Z,976.53
2022-10-01T12:16:39.677Z,976.62
2022-10-01T12:22:09.709Z,976.69
2022-10-01T12:27:41.491Z,977.03
2022-10-01T12:33:13.381Z,977.05
2022-10-01T12:38:44.853Z,976.99
2022-10-01T12:44:16.581Z,977.12
2022-10-01T12:49:48.417Z,977.35
2022-10-01T12:55:20.053Z,977.49
2022-10-01T13:00:51.954Z,977.58
2022-10-01T13:06:27.938Z,977.45
2022-10-01T13:11:59.729Z,977.62
2022-10-01T13:17:35.476Z,977.6
2022-10-01T13:23:03.094Z,977.66
2022-10-01T13:28:34.890Z,978.05
2022-10-01T13:34:06.557Z,977.78
2022-10-01T13:39:40.213Z,978.05
2022-10-01T13:45:17.032Z,978.06
2022-10-01T13:50:41.708Z,978.0
2022-10-01T13:56:13.501Z,978.2
2022-10-01T14:01:45.478Z,978.25
2022-10-01T14:07:21.269Z,978.02
2022-10-01T14:12:52.969Z,978.15
2022-10-01T14:18:24.750Z,978.03
2022-10-01T14:23:56.493Z,978.04
2022-10-01T14:29:28.379Z,978.01
2022-10-01T14:34:59.919Z,978.02
2022-10-01T14:40:31.642Z,977.81
2022-10-01T14:46:03.713Z,977.99
2022-10-01T14:51:35.096Z,978.07
2022-10-01T14:57:06.785Z,977.8
2022-10-01T15:02:38.527Z,977.7
2022-10-01T15:08:14.615Z,977.2
2022-10-01T15:13:46.398Z,977.22
2022-10-01T15:19:18.124Z,977.18
2022-10-01T15:24:49.911Z,976.99
2022-10-01T15:30:21.654Z,976.92
2022-10-01T15:35:53.359Z,977.18
2022-10-01T15:41:33.271Z,976.91
2022-10-01T15:46:56.838Z,977.15
2022-10-01T15:52:28.515Z,977.19
2022-10-01T15:58:00.180Z,977.33
2022-10-01T16:03:31.938Z,977.45
2022-10-01T16:09:08.210Z,977.31
2022-10-01T16:14:39.751Z,977.22
2022-10-01T16:20:11.636Z,977.43
2022-10-01T16:25:43.212Z,977.46
2022-10-01T16:31:15.052Z,977.39
2022-10-01T16:36:46.753Z,977.2
2022-10-01T16:42:25.038Z,977.31
2022-10-01T16:47:50.224Z,977.47
2022-10-01T16:53:22.449Z,977.53
2022-10-01T16:58:53.544Z,977.53
2022-10-01T17:04:25.254Z,977.61
2022-10-01T17:10:03.732Z,977.57
2022-10-01T17:15:35.114Z,977.62
2022-10-01T17:21:06.877Z,977.89
2022-10-01T17:26:38.573Z,977.87
2022-10-01T17:32:10.457Z,977.88
2022-10-01T17:37:42.041Z,977.87
2022-10-01T17:43:13.756Z,977.64
2022-10-01T17:48:45.467Z,977.85
2022-10-01T17:54:17.111Z,977.72
2022-10-01T17:59:48.930Z,977.68
2022-10-01T18:05:20.657Z,977.92
2022-10-01T18:10:56.790Z,977.62
2022-10-01T18:16:28.764Z,978.03
2022-10-01T18:22:00.215Z,977.95
2022-10-01T18:27:32.174Z,978.29
2022-10-01T18:33:03.689Z,978.58
2022-10-01T18:38:35.389Z,978.57
2022-10-01T18:44:07.385Z,978.3
2022-10-01T18:49:38.926Z,978.24
2022-10-01T18:55:10.549Z,978.26
2022-10-01T19:00:42.759Z,978.36
2022-10-01T19:06:14.085Z,978.52
2022-10-01T19:11:50.186Z,978.59
2022-10-01T19:17:21.868Z,978.88
2022-10-01T19:22:53.589Z,979.17
2022-10-01T19:28:25.542Z,979.51
2022-10-01T19:33:57.069Z,979.44
2022-10-01T19:39:28.877Z,979.67
2022-10-01T19:45:00.524Z,979.78
2022-10-01T19:50:32.245Z,980.04
2022-10-01T19:56:04.023Z,979.93
2022-10-01T20:01:35.868Z,980.12
2022-10-01T20:07:07.445Z,980.61
2022-10-01T20:12:43.626Z,980.51
2022-10-01T20:18:15.281Z,980.72
2022-10-01T20:23:47.191Z,980.73
2022-10-01T20:29:18.792Z,980.63
2022-10-01T20:34:50.446Z,980.66
2022-10-01T20:40:22.327Z,980.89
2022-10-01T20:45:54.208Z,981.15
2022-10-01T20:51:25.675Z,981.29
2022-10-01T20:56:57.364Z,981.53
2022-10-01T21:02:29.220Z,982.11
2022-10-01T21:08:00.913Z,982.36
2022-10-01T21:13:36.857Z,982.51
2022-10-01T21:19:08.639Z,982.49
2022-10-01T21:24:40.859Z,982.57
2022-10-01T21:30:12.084Z,982.55
2022-10-01T21:35:43.830Z,982.54
2022-10-01T21:41:15.689Z,982.69
2022-10-01T21:46:47.378Z,982.36
2022-10-01T21:52:19.061Z,982.21
2022-10-01T21:57:50.874Z,982.4
2022-10-01T22:03:22.787Z,982.71
2022-10-01T22:08:54.455Z,982.82
2022-10-01T22:14:30.505Z,983.17
2022-10-01T22:20:02.346Z,982.8
2022-10-01T22:25:34.086Z,982.87
2022-10-01T22:31:05.736Z,983.06
2022-10-01T22:36:38.525Z,983.34
2022-10-01T22:42:09.226Z,983.32
2022-10-01T22:47:41.017Z,983.14
2022-10-01T22:53:12.702Z,983.49
2022-10-01T22:58:44.365Z,983.58
2022-10-01T23:04:16.300Z,983.7
2022-10-01T23:09:48.013Z,984.1
2022-10-01T23:15:23.976Z,984.05
2022-10-01T23:20:55.701Z,983.99
2022-10-01T23:26:27.338Z,983.88
2022-10-01T23:31:59.481Z,983.95
2022-10-01T23:37:31.345Z,983.94
2022-10-01T23:43:02.506Z,984.07
2022-10-01T23:48:34.269Z,984.0
2022-10-01T23:54:06.085Z,983.77
2022-10-01T23:59:37.745Z,983.73
